Ulmodrome de Limoux

FR-0329 · Aude, Occitanie, 法国

罗盘
风向 的 风向 270°
风: 5 kt, 2 beaufort

添加一条跑道以查看侧风和逆风信息。

添置 跑道
0 6.000 12.000 18.000 24.000 30.000
FEW 4.500 ft
SCT 21.000 ft
METAR LFMK 022230Z AUTO 27005KT 6000 FEW045 SCT210 03/02 Q1012

METAR Ulmodrome de Limoux - FR-0329

Ulmodrome de Limoux是,法国中的小机场。 该领域的国际民航组织标志是FR-0329.

这份报告是针对2022年12月2日 23:30, 当地时间在Carcassonne Airport进行的。

机场观察

风向为270°,速度为5 kt。

可见度为6 km。

有几云在4.500 ft的高度 和 疏云,零星散落的云朵在21.000 ft的高度。 没有观察到天花板。

温度为3 °C,阵风为-2 °C。 露点为2 °C,相对湿度为93%。 海平面上的气压为1012 hPa (QNH)。

白天

今天,太阳从08:03升起,在17:17降落。 这适用于Ulmodrome de Limoux,世界夏令时可能有所不同。 当地时间与世界标准时间之间的时差为+1 小时。 当前,没有夏令时有效。

公司介绍

我们没有关于这个机场的公司信息。

体会

到Vliegles.nl去找飞行课程,跳伞和其他飞行体验。 浏览页面,了解Ulmodrome de Limoux附近所有可用的活动。 你也可以使用搜索功能来寻找你所在地附近的特定飞行课程、跳伞或其他飞行体验。

乌云

4.500 ft FEW 几云
21.000 ft SCT 疏云,零星散落的云朵

温度 & 天气

温度 3 °C
露点 2 °C
相对湿度 93%
风寒 -2 °C
Kp-index 2 (0-9)

白天

日出
08:03 (8:08)
中午
12:40
日落
17:16

小工具

你想在你的网站上有一个关于Ulmodrome de Limoux的当前航空天气(METAR)的小部件吗?

显示HTML代码

我们和第三方通过cookies跟踪您在我们网站上的互联网行为。如果你继续,我们认为你同意我们的饼干政策